THY1KS EBBR-LTFM
Flight info
| Callsign | THY1KS |
|---|---|
| Flight time | N/A |
| Altitude | 39000 |
| Route | SOPOK Y863 OGLOR DCT EMGOD DCT BOMBI DCT BARSU DCT DEXIT DCT PESAT DCT INVED DCT TIMUR L606 GASRU T390 RILEX |
| Aircraft | A339/H-SADE1E2E3GHIJ3J5M1P2RWXY/LB2D1 |
Departure
| Time | 2026-05-04 15:40 |
|---|---|
| Airport | Brussels Airport (EBBR) |
Arrival
| Time | N/A |
|---|---|
| Airport | İstanbul Airport (LTFM) |
| Time | Latitude | Longitude | Altitude | Speed | Heading |
|---|---|---|---|---|---|
| 2026-05-04 15:07 | 50.90075 | 4.48736 | 136 ft | 0 kts | 155° |
| 2026-05-04 15:26 | 50.90077 | 4.48735 | 136 ft | 2 kts | 155° |
| 2026-05-04 15:26 | 50.90101 | 4.48717 | 135 ft | 3 kts | 145° |
| 2026-05-04 15:26 | 50.90133 | 4.48664 | 130 ft | 4 kts | 81° |
| 2026-05-04 15:27 | 50.90132 | 4.48651 | 131 ft | 0 kts | 65° |
| 2026-05-04 15:30 | 50.90135 | 4.48661 | 131 ft | 2 kts | 66° |
| 2026-05-04 15:30 | 50.90173 | 4.48795 | 128 ft | 7 kts | 65° |
| 2026-05-04 15:31 | 50.90225 | 4.48970 | 131 ft | 10 kts | 65° |
| 2026-05-04 15:31 | 50.90257 | 4.49083 | 131 ft | 12 kts | 66° |
| 2026-05-04 15:32 | 50.90359 | 4.49439 | 129 ft | 1 kts | 66° |
| 2026-05-04 15:32 | 50.90355 | 4.49514 | 127 ft | 5 kts | 121° |
| 2026-05-04 15:33 | 50.90287 | 4.49521 | 124 ft | 6 kts | 191° |
| 2026-05-04 15:34 | 50.90103 | 4.49448 | 136 ft | 17 kts | 194° |
| 2026-05-04 15:34 | 50.89968 | 4.49393 | 139 ft | 23 kts | 194° |
| 2026-05-04 15:34 | 50.89697 | 4.49284 | 155 ft | 15 kts | 194° |
| 2026-05-04 15:35 | 50.89570 | 4.49196 | 162 ft | 5 kts | 206° |
| 2026-05-04 15:35 | 50.89549 | 4.49184 | 164 ft | 3 kts | 199° |
| 2026-05-04 15:35 | 50.89521 | 4.49172 | 165 ft | 5 kts | 195° |
| 2026-05-04 15:36 | 50.89421 | 4.49129 | 169 ft | 9 kts | 195° |
| 2026-05-04 15:36 | 50.89353 | 4.49102 | 172 ft | 11 kts | 194° |
| 2026-05-04 15:36 | 50.89274 | 4.49071 | 175 ft | 12 kts | 194° |
| 2026-05-04 15:37 | 50.89203 | 4.49042 | 181 ft | 11 kts | 194° |
| 2026-05-04 15:37 | 50.89111 | 4.49005 | 183 ft | 17 kts | 194° |
| 2026-05-04 15:37 | 50.88977 | 4.48949 | 193 ft | 22 kts | 195° |
| 2026-05-04 15:37 | 50.88845 | 4.48894 | 204 ft | 16 kts | 194° |
| 2026-05-04 15:38 | 50.88762 | 4.48917 | 209 ft | 9 kts | 135° |
| 2026-05-04 15:38 | 50.88739 | 4.49002 | 210 ft | 8 kts | 107° |
| 2026-05-04 15:38 | 50.88729 | 4.49092 | 198 ft | 9 kts | 90° |
| 2026-05-04 15:38 | 50.88768 | 4.49166 | 209 ft | 9 kts | 30° |
| 2026-05-04 15:39 | 50.88828 | 4.49196 | 197 ft | 9 kts | 15° |
| 2026-05-04 15:39 | 50.88832 | 4.49198 | 198 ft | 3 kts | 15° |
| 2026-05-04 15:39 | 50.90018 | 4.49682 | 158 ft | 164 kts | 14° |
| 2026-05-04 15:40 | 50.91202 | 4.50179 | 667 ft | 185 kts | 17° |
| 2026-05-04 15:40 | 50.92383 | 4.50995 | 1491 ft | 186 kts | 28° |
| 2026-05-04 15:40 | 50.93480 | 4.52062 | 2375 ft | 189 kts | 32° |
| 2026-05-04 15:40 | 50.94649 | 4.53245 | 2896 ft | 210 kts | 32° |
| 2026-05-04 15:41 | 50.95742 | 4.54919 | 3407 ft | 228 kts | 59° |
| 2026-05-04 15:41 | 50.96191 | 4.57335 | 4160 ft | 233 kts | 89° |
| 2026-05-04 15:41 | 50.95834 | 4.59827 | 4953 ft | 235 kts | 118° |
| 2026-05-04 15:41 | 50.94748 | 4.61748 | 5714 ft | 238 kts | 147° |
| 2026-05-04 15:42 | 50.93175 | 4.62624 | 6353 ft | 248 kts | 174° |
| 2026-05-04 15:42 | 50.91382 | 4.62629 | 6646 ft | 268 kts | 183° |
| 2026-05-04 15:42 | 50.89501 | 4.62590 | 7121 ft | 277 kts | 179° |
| 2026-05-04 15:42 | 50.87567 | 4.62550 | 7810 ft | 280 kts | 181° |
| 2026-05-04 15:43 | 50.85603 | 4.62601 | 8490 ft | 284 kts | 178° |
| 2026-05-04 15:43 | 50.83621 | 4.62813 | 9183 ft | 287 kts | 175° |
| 2026-05-04 15:43 | 50.81616 | 4.63099 | 9885 ft | 291 kts | 175° |
| 2026-05-04 15:43 | 50.79572 | 4.63412 | 10317 ft | 303 kts | 174° |
| 2026-05-04 15:44 | 50.77486 | 4.64347 | 10489 ft | 322 kts | 153° |
| 2026-05-04 15:44 | 50.75652 | 4.66499 | 10711 ft | 338 kts | 132° |
| 2026-05-04 15:44 | 50.74297 | 4.69554 | 11284 ft | 341 kts | 120° |
| 2026-05-04 15:44 | 50.73125 | 4.72820 | 11904 ft | 344 kts | 119° |
| 2026-05-04 15:45 | 50.71903 | 4.76093 | 12557 ft | 346 kts | 121° |
| 2026-05-04 15:45 | 50.70596 | 4.79302 | 13228 ft | 350 kts | 123° |
| 2026-05-04 15:45 | 50.69216 | 4.82478 | 13845 ft | 353 kts | 124° |
| 2026-05-04 15:45 | 50.67788 | 4.85649 | 14407 ft | 355 kts | 125° |
| 2026-05-04 15:46 | 50.66342 | 4.88815 | 14987 ft | 357 kts | 126° |
| 2026-05-04 15:46 | 50.64886 | 4.91992 | 15563 ft | 359 kts | 126° |
| 2026-05-04 15:46 | 50.63415 | 4.95203 | 16084 ft | 363 kts | 126° |
| 2026-05-04 15:46 | 50.61937 | 4.98431 | 16613 ft | 366 kts | 126° |
| 2026-05-04 15:47 | 50.60445 | 5.01692 | 17183 ft | 368 kts | 127° |
| 2026-05-04 15:47 | 50.58942 | 5.04973 | 17732 ft | 370 kts | 127° |
| 2026-05-04 15:47 | 50.57433 | 5.08266 | 18263 ft | 373 kts | 127° |
| 2026-05-04 15:47 | 50.55912 | 5.11581 | 18743 ft | 375 kts | 127° |
| 2026-05-04 15:48 | 50.54378 | 5.14918 | 19236 ft | 378 kts | 128° |
| 2026-05-04 15:48 | 50.52821 | 5.18302 | 19760 ft | 381 kts | 128° |
| 2026-05-04 15:48 | 50.49687 | 5.25097 | 20762 ft | 388 kts | 128° |
| 2026-05-04 15:49 | 50.48094 | 5.28542 | 21246 ft | 391 kts | 129° |
| 2026-05-04 15:49 | 50.46493 | 5.32003 | 21744 ft | 394 kts | 129° |
| 2026-05-04 15:49 | 50.44871 | 5.35500 | 22222 ft | 397 kts | 129° |
| 2026-05-04 15:49 | 50.43261 | 5.38968 | 22702 ft | 400 kts | 129° |
| 2026-05-04 15:50 | 50.41618 | 5.42503 | 23165 ft | 403 kts | 129° |
| 2026-05-04 15:50 | 50.39959 | 5.46068 | 23637 ft | 407 kts | 129° |
| 2026-05-04 15:50 | 50.38285 | 5.49658 | 24074 ft | 409 kts | 129° |
| 2026-05-04 15:50 | 50.36605 | 5.53260 | 24519 ft | 410 kts | 129° |
| 2026-05-04 15:51 | 50.34915 | 5.56876 | 24957 ft | 413 kts | 129° |
| 2026-05-04 15:51 | 50.33214 | 5.60510 | 25398 ft | 415 kts | 130° |
| 2026-05-04 15:51 | 50.31629 | 5.63894 | 25800 ft | 418 kts | 130° |
| 2026-05-04 15:51 | 50.29903 | 5.67571 | 26226 ft | 420 kts | 130° |
| 2026-05-04 15:52 | 50.28170 | 5.71258 | 26649 ft | 422 kts | 130° |
| 2026-05-04 15:52 | 50.26518 | 5.75069 | 27035 ft | 427 kts | 124° |
| 2026-05-04 15:52 | 50.25168 | 5.79248 | 27428 ft | 434 kts | 117° |
| 2026-05-04 15:52 | 50.24165 | 5.83733 | 27805 ft | 441 kts | 109° |
| 2026-05-04 15:53 | 50.23450 | 5.88135 | 28164 ft | 444 kts | 108° |
| 2026-05-04 15:53 | 50.22684 | 5.92819 | 28520 ft | 446 kts | 109° |
| 2026-05-04 15:53 | 50.21900 | 5.97520 | 28908 ft | 448 kts | 109° |
| 2026-05-04 15:53 | 50.21103 | 6.02238 | 29250 ft | 451 kts | 109° |
| 2026-05-04 15:54 | 50.20296 | 6.06982 | 29586 ft | 453 kts | 109° |
| 2026-05-04 15:54 | 50.19481 | 6.11753 | 29954 ft | 456 kts | 110° |
| 2026-05-04 15:54 | 50.18814 | 6.16605 | 30270 ft | 463 kts | 103° |
| 2026-05-04 15:54 | 50.18527 | 6.21653 | 30594 ft | 470 kts | 96° |
| 2026-05-04 15:55 | 50.18640 | 6.26785 | 30899 ft | 476 kts | 88° |
| 2026-05-04 15:55 | 50.18967 | 6.31547 | 31189 ft | 479 kts | 88° |
| 2026-05-04 15:55 | 50.19323 | 6.36922 | 31533 ft | 481 kts | 88° |
| 2026-05-04 15:55 | 50.19653 | 6.42132 | 31867 ft | 483 kts | 88° |
| 2026-05-04 15:56 | 50.19971 | 6.47300 | 32182 ft | 486 kts | 88° |
| 2026-05-04 15:56 | 50.20291 | 6.52568 | 32476 ft | 488 kts | 88° |
| 2026-05-04 15:56 | 50.20614 | 6.57917 | 32739 ft | 490 kts | 88° |
| 2026-05-04 15:56 | 50.20914 | 6.63145 | 32940 ft | 491 kts | 90° |
| 2026-05-04 15:57 | 50.20942 | 6.68461 | 33151 ft | 489 kts | 96° |
| 2026-05-04 15:57 | 50.20828 | 6.73755 | 33356 ft | 490 kts | 96° |
| 2026-05-04 15:57 | 50.20728 | 6.79095 | 33548 ft | 492 kts | 96° |
| 2026-05-04 15:57 | 50.20633 | 6.84427 | 33785 ft | 491 kts | 95° |
| 2026-05-04 15:58 | 50.20537 | 6.89758 | 34031 ft | 491 kts | 96° |
| 2026-05-04 15:58 | 50.20438 | 6.95083 | 34242 ft | 491 kts | 96° |
| 2026-05-04 15:58 | 50.20334 | 7.00414 | 34421 ft | 491 kts | 96° |
| 2026-05-04 15:58 | 50.20227 | 7.05744 | 34592 ft | 491 kts | 95° |
| 2026-05-04 15:59 | 50.20118 | 7.11083 | 34768 ft | 491 kts | 95° |
| 2026-05-04 15:59 | 50.20008 | 7.16418 | 34941 ft | 491 kts | 95° |
| 2026-05-04 15:59 | 50.19933 | 7.19941 | 35061 ft | 491 kts | 96° |
| 2026-05-04 15:59 | 50.19817 | 7.25280 | 35242 ft | 491 kts | 96° |
| 2026-05-04 16:00 | 50.19697 | 7.30608 | 35429 ft | 491 kts | 96° |
| 2026-05-04 16:00 | 50.19402 | 7.35890 | 35570 ft | 488 kts | 102° |
| 2026-05-04 16:00 | 50.18912 | 7.41134 | 35732 ft | 488 kts | 102° |
| 2026-05-04 16:00 | 50.18435 | 7.46381 | 35910 ft | 489 kts | 102° |
| 2026-05-04 16:01 | 50.17962 | 7.51652 | 36067 ft | 489 kts | 102° |
| 2026-05-04 16:01 | 50.17491 | 7.56892 | 36281 ft | 488 kts | 102° |
| 2026-05-04 16:01 | 50.17016 | 7.62146 | 36452 ft | 489 kts | 102° |
| 2026-05-04 16:01 | 50.16539 | 7.67396 | 36610 ft | 489 kts | 102° |
| 2026-05-04 16:02 | 50.16064 | 7.72566 | 36788 ft | 489 kts | 102° |
| 2026-05-04 16:02 | 50.15580 | 7.77814 | 36972 ft | 489 kts | 102° |
| 2026-05-04 16:02 | 50.14607 | 7.88299 | 37312 ft | 489 kts | 102° |
| 2026-05-04 16:03 | 50.14117 | 7.93533 | 37475 ft | 488 kts | 102° |
| 2026-05-04 16:03 | 50.13624 | 7.98776 | 37655 ft | 488 kts | 102° |
| 2026-05-04 16:03 | 50.13129 | 8.04015 | 37831 ft | 488 kts | 102° |
| 2026-05-04 16:03 | 50.12633 | 8.09246 | 38014 ft | 488 kts | 102° |
| 2026-05-04 16:04 | 50.12133 | 8.14479 | 38133 ft | 488 kts | 102° |
| 2026-05-04 16:04 | 50.11127 | 8.24937 | 38462 ft | 488 kts | 102° |
| 2026-05-04 16:04 | 50.10621 | 8.30166 | 38627 ft | 488 kts | 102° |
| 2026-05-04 16:05 | 50.10113 | 8.35383 | 38816 ft | 488 kts | 102° |
| 2026-05-04 16:05 | 50.09601 | 8.40622 | 38937 ft | 488 kts | 102° |
| 2026-05-04 16:06 | 50.08058 | 8.56246 | 38962 ft | 486 kts | 102° |
| 2026-05-04 16:07 | 50.05970 | 8.77049 | 38965 ft | 486 kts | 102° |
| 2026-05-04 16:08 | 50.04231 | 8.97909 | 38972 ft | 486 kts | 99° |
| 2026-05-04 16:09 | 50.02168 | 9.23874 | 38956 ft | 482 kts | 100° |
| 2026-05-04 16:10 | 50.00462 | 9.44491 | 38970 ft | 482 kts | 100° |
| 2026-05-04 16:11 | 49.98704 | 9.65279 | 38971 ft | 485 kts | 100° |
| 2026-05-04 16:12 | 49.95997 | 9.96449 | 38965 ft | 485 kts | 101° |
| 2026-05-04 16:13 | 49.94146 | 10.17216 | 38964 ft | 485 kts | 101° |
| 2026-05-04 16:14 | 49.91809 | 10.37758 | 38964 ft | 481 kts | 110° |
| 2026-05-04 16:15 | 49.87912 | 10.51909 | 38970 ft | 476 kts | 121° |
| 2026-05-04 16:16 | 49.84885 | 10.61064 | 38966 ft | 477 kts | 120° |
| 2026-05-04 16:17 | 49.77320 | 10.83938 | 38960 ft | 478 kts | 120° |
| 2026-05-04 16:18 | 49.71213 | 11.02218 | 38955 ft | 479 kts | 120° |
| 2026-05-04 16:19 | 49.63538 | 11.25015 | 38943 ft | 479 kts | 120° |
| 2026-05-04 16:20 | 49.55837 | 11.47686 | 38946 ft | 479 kts | 120° |
| 2026-05-04 16:22 | 49.48063 | 11.70368 | 38969 ft | 479 kts | 120° |
| 2026-05-04 16:23 | 49.38680 | 11.97480 | 38953 ft | 479 kts | 120° |
| 2026-05-04 16:25 | 49.29234 | 12.24489 | 38942 ft | 479 kts | 120° |
| 2026-05-04 16:26 | 49.18116 | 12.55919 | 38933 ft | 480 kts | 120° |
| 2026-05-04 16:28 | 49.10137 | 12.78246 | 38931 ft | 480 kts | 120° |
| 2026-05-04 16:29 | 48.98852 | 13.09492 | 38923 ft | 481 kts | 120° |
| 2026-05-04 16:31 | 48.90762 | 13.31678 | 38931 ft | 481 kts | 121° |
| 2026-05-04 16:32 | 48.80949 | 13.58321 | 38927 ft | 482 kts | 121° |
| 2026-05-04 16:33 | 48.74506 | 13.76171 | 38927 ft | 484 kts | 116° |
| 2026-05-04 16:34 | 48.70550 | 13.90249 | 38926 ft | 484 kts | 115° |
| 2026-05-04 16:35 | 48.62343 | 14.18080 | 38925 ft | 483 kts | 116° |
| 2026-05-04 16:36 | 48.58186 | 14.31965 | 38922 ft | 483 kts | 116° |
| 2026-05-04 16:37 | 48.54013 | 14.45830 | 38920 ft | 483 kts | 116° |
| 2026-05-04 16:38 | 48.48421 | 14.64292 | 38934 ft | 484 kts | 116° |
| 2026-05-04 16:39 | 48.41390 | 14.87307 | 38915 ft | 484 kts | 116° |
| 2026-05-04 16:40 | 48.35746 | 15.05630 | 38932 ft | 484 kts | 116° |
| 2026-05-04 16:41 | 48.28640 | 15.28505 | 38928 ft | 483 kts | 116° |
| 2026-05-04 16:43 | 48.21490 | 15.51311 | 38934 ft | 483 kts | 116° |
| 2026-05-04 16:43 | 48.17182 | 15.64956 | 38933 ft | 482 kts | 116° |
| 2026-05-04 16:45 | 48.08531 | 15.92130 | 38937 ft | 482 kts | 116° |
| 2026-05-04 16:46 | 48.01277 | 16.14694 | 38941 ft | 482 kts | 116° |
| 2026-05-04 16:47 | 47.95464 | 16.32631 | 38950 ft | 481 kts | 116° |
| 2026-05-04 16:48 | 47.89609 | 16.50572 | 38952 ft | 481 kts | 116° |
| 2026-05-04 16:49 | 47.83720 | 16.68492 | 38953 ft | 482 kts | 116° |
| 2026-05-04 16:50 | 47.78300 | 16.84874 | 38968 ft | 481 kts | 116° |
| 2026-05-04 16:51 | 47.73847 | 16.98263 | 38973 ft | 481 kts | 116° |
| 2026-05-04 16:52 | 47.67075 | 17.15360 | 38972 ft | 480 kts | 123° |
| 2026-05-04 16:53 | 47.61596 | 17.27813 | 38983 ft | 480 kts | 123° |
| 2026-05-04 16:54 | 47.54284 | 17.44358 | 38991 ft | 480 kts | 123° |
| 2026-05-04 16:55 | 47.43269 | 17.69073 | 38995 ft | 480 kts | 123° |
| 2026-05-04 16:56 | 47.34081 | 17.89518 | 39005 ft | 479 kts | 123° |
| 2026-05-04 16:57 | 47.28539 | 18.01778 | 39011 ft | 479 kts | 123° |
| 2026-05-04 16:58 | 47.21141 | 18.18059 | 39017 ft | 478 kts | 123° |
| 2026-05-04 17:00 | 47.10008 | 18.42378 | 39015 ft | 477 kts | 123° |
| 2026-05-04 17:01 | 47.00704 | 18.62541 | 39026 ft | 478 kts | 123° |
| 2026-05-04 17:02 | 46.93234 | 18.78626 | 39030 ft | 478 kts | 123° |
| 2026-05-04 17:03 | 46.87612 | 18.90671 | 39029 ft | 478 kts | 123° |
| 2026-05-04 17:03 | 46.81979 | 19.02686 | 39033 ft | 478 kts | 124° |
| 2026-05-04 17:04 | 46.74463 | 19.18638 | 39031 ft | 478 kts | 124° |
| 2026-05-04 17:05 | 46.66906 | 19.34582 | 39043 ft | 478 kts | 124° |
| 2026-05-04 17:06 | 46.61221 | 19.46516 | 39042 ft | 478 kts | 124° |
| 2026-05-04 17:07 | 46.56212 | 19.56989 | 39048 ft | 478 kts | 124° |
| 2026-05-04 17:07 | 46.51792 | 19.66200 | 39050 ft | 478 kts | 124° |
| 2026-05-04 17:08 | 46.46077 | 19.78046 | 39054 ft | 477 kts | 125° |
| 2026-05-04 17:09 | 46.41924 | 19.85550 | 39053 ft | 477 kts | 128° |
| 2026-05-04 17:09 | 46.37732 | 19.93014 | 39056 ft | 478 kts | 128° |
| 2026-05-04 17:10 | 46.27168 | 20.11333 | 39063 ft | 478 kts | 129° |
| 2026-05-04 17:11 | 46.22893 | 20.18685 | 39064 ft | 478 kts | 129° |
| 2026-05-04 17:12 | 46.16477 | 20.29680 | 39066 ft | 477 kts | 129° |
| 2026-05-04 17:13 | 46.05758 | 20.47955 | 39068 ft | 477 kts | 129° |
| 2026-05-04 17:14 | 45.97174 | 20.62503 | 39078 ft | 477 kts | 129° |
| 2026-05-04 17:15 | 45.90715 | 20.73399 | 39068 ft | 477 kts | 129° |
| 2026-05-04 17:16 | 45.82299 | 20.87533 | 39073 ft | 478 kts | 129° |
| 2026-05-04 17:17 | 45.73644 | 21.01995 | 39065 ft | 478 kts | 129° |
| 2026-05-04 17:18 | 45.64955 | 21.16435 | 39079 ft | 479 kts | 129° |
| 2026-05-04 17:19 | 45.56267 | 21.30801 | 39067 ft | 479 kts | 129° |
| 2026-05-04 17:20 | 45.47498 | 21.45225 | 39087 ft | 480 kts | 129° |
| 2026-05-04 17:20 | 45.40959 | 21.55933 | 39079 ft | 480 kts | 129° |
| 2026-05-04 17:21 | 45.32178 | 21.70249 | 39079 ft | 480 kts | 129° |
| 2026-05-04 17:22 | 45.27774 | 21.77400 | 39084 ft | 480 kts | 129° |
| 2026-05-04 17:23 | 45.18965 | 21.91651 | 39088 ft | 480 kts | 130° |
| 2026-05-04 17:24 | 45.12355 | 22.02297 | 39093 ft | 479 kts | 130° |
| 2026-05-04 17:25 | 45.03539 | 22.16432 | 39093 ft | 478 kts | 130° |
| 2026-05-04 17:26 | 44.94725 | 22.30495 | 39081 ft | 478 kts | 130° |
| 2026-05-04 17:27 | 44.83702 | 22.47980 | 39062 ft | 477 kts | 130° |
| 2026-05-04 17:28 | 44.74882 | 22.61892 | 39042 ft | 477 kts | 130° |
| 2026-05-04 17:29 | 44.61596 | 22.82720 | 39033 ft | 478 kts | 131° |
| 2026-05-04 17:31 | 44.50468 | 23.00047 | 39039 ft | 478 kts | 131° |
| 2026-05-04 17:32 | 44.39331 | 23.17281 | 39033 ft | 478 kts | 131° |
| 2026-05-04 17:33 | 44.30383 | 23.31053 | 39038 ft | 478 kts | 131° |
| 2026-05-04 17:34 | 44.22188 | 23.43606 | 39042 ft | 478 kts | 131° |
| 2026-05-04 17:35 | 44.10958 | 23.60716 | 39032 ft | 478 kts | 131° |
| 2026-05-04 17:36 | 44.06456 | 23.67546 | 39037 ft | 479 kts | 131° |
| 2026-05-04 17:36 | 44.01954 | 23.74361 | 39040 ft | 479 kts | 131° |
| 2026-05-04 17:37 | 43.97445 | 23.81168 | 39050 ft | 479 kts | 131° |
| 2026-05-04 17:37 | 43.92936 | 23.87960 | 39048 ft | 479 kts | 131° |
| 2026-05-04 17:38 | 43.88411 | 23.94760 | 39055 ft | 479 kts | 131° |
| 2026-05-04 17:38 | 43.83889 | 24.01539 | 39060 ft | 479 kts | 131° |
| 2026-05-04 17:39 | 43.77096 | 24.11695 | 39046 ft | 479 kts | 131° |
| 2026-05-04 17:39 | 43.72563 | 24.18461 | 39060 ft | 479 kts | 131° |
| 2026-05-04 17:40 | 43.68024 | 24.25103 | 39071 ft | 480 kts | 134° |
| 2026-05-04 17:40 | 43.64110 | 24.31106 | 39066 ft | 479 kts | 129° |
| 2026-05-04 17:41 | 43.59749 | 24.38053 | 39068 ft | 479 kts | 130° |
| 2026-05-04 17:41 | 43.55310 | 24.44915 | 39071 ft | 479 kts | 130° |
| 2026-05-04 17:42 | 43.50868 | 24.51687 | 39076 ft | 479 kts | 131° |
| 2026-05-04 17:42 | 43.46391 | 24.58489 | 39085 ft | 479 kts | 131° |
| 2026-05-04 17:43 | 43.41912 | 24.65280 | 39064 ft | 479 kts | 131° |
| 2026-05-04 17:43 | 43.37410 | 24.72093 | 39087 ft | 479 kts | 131° |
| 2026-05-04 17:44 | 43.32921 | 24.78868 | 39084 ft | 479 kts | 131° |
| 2026-05-04 17:44 | 43.28448 | 24.85602 | 39074 ft | 480 kts | 131° |
| 2026-05-04 17:45 | 43.23949 | 24.92361 | 39061 ft | 480 kts | 131° |
| 2026-05-04 17:45 | 43.19444 | 24.99113 | 39072 ft | 479 kts | 131° |
| 2026-05-04 17:46 | 43.14953 | 25.05827 | 39092 ft | 479 kts | 131° |
| 2026-05-04 17:46 | 43.10442 | 25.12555 | 39077 ft | 479 kts | 131° |
| 2026-05-04 17:47 | 43.05932 | 25.19268 | 39071 ft | 479 kts | 131° |
| 2026-05-04 17:47 | 43.01417 | 25.25970 | 39072 ft | 479 kts | 131° |
| 2026-05-04 17:48 | 42.96911 | 25.32645 | 39064 ft | 479 kts | 131° |
| 2026-05-04 17:48 | 42.92392 | 25.39322 | 39060 ft | 479 kts | 131° |
| 2026-05-04 17:49 | 42.87866 | 25.45996 | 39056 ft | 479 kts | 131° |
| 2026-05-04 17:49 | 42.83335 | 25.52660 | 39057 ft | 479 kts | 131° |
| 2026-05-04 17:50 | 42.78797 | 25.59319 | 39049 ft | 480 kts | 131° |
| 2026-05-04 17:50 | 42.74255 | 25.65969 | 39054 ft | 480 kts | 131° |
| 2026-05-04 17:51 | 42.69708 | 25.72611 | 38826 ft | 477 kts | 131° |
| 2026-05-04 17:51 | 42.67453 | 25.75899 | 38333 ft | 476 kts | 131° |
| 2026-05-04 17:51 | 42.65197 | 25.79185 | 37662 ft | 475 kts | 131° |
| 2026-05-04 17:52 | 42.62943 | 25.82464 | 36956 ft | 474 kts | 132° |
| 2026-05-04 17:52 | 42.60697 | 25.85729 | 36218 ft | 473 kts | 132° |
| 2026-05-04 17:52 | 42.58482 | 25.88944 | 35541 ft | 472 kts | 132° |
| 2026-05-04 17:52 | 42.56257 | 25.92169 | 35345 ft | 467 kts | 132° |
| 2026-05-04 17:53 | 42.54026 | 25.95401 | 35237 ft | 469 kts | 132° |
| 2026-05-04 17:53 | 42.51767 | 25.98669 | 34893 ft | 468 kts | 132° |
| 2026-05-04 17:53 | 42.49570 | 26.01844 | 34240 ft | 468 kts | 132° |
| 2026-05-04 17:53 | 42.47336 | 26.05068 | 33432 ft | 469 kts | 132° |
| 2026-05-04 17:54 | 42.45102 | 26.08289 | 32467 ft | 471 kts | 131° |
| 2026-05-04 17:54 | 42.42856 | 26.11523 | 31682 ft | 471 kts | 131° |
| 2026-05-04 17:54 | 42.40601 | 26.14768 | 31308 ft | 474 kts | 131° |
| 2026-05-04 17:54 | 42.38333 | 26.18028 | 31119 ft | 476 kts | 131° |
| 2026-05-04 17:55 | 42.33804 | 26.24524 | 31028 ft | 475 kts | 131° |
| 2026-05-04 17:55 | 42.29271 | 26.31012 | 31030 ft | 475 kts | 131° |
| 2026-05-04 17:56 | 42.24732 | 26.37494 | 31031 ft | 475 kts | 131° |
| 2026-05-04 17:56 | 42.20188 | 26.43968 | 31036 ft | 475 kts | 131° |
| 2026-05-04 17:57 | 42.15643 | 26.50429 | 31038 ft | 475 kts | 131° |
| 2026-05-04 17:57 | 42.11092 | 26.56885 | 31037 ft | 475 kts | 131° |
| 2026-05-04 17:58 | 42.06531 | 26.63340 | 31042 ft | 476 kts | 131° |
| 2026-05-04 17:58 | 42.01971 | 26.69781 | 31045 ft | 475 kts | 131° |
| 2026-05-04 17:59 | 41.97477 | 26.76286 | 31052 ft | 473 kts | 126° |
| 2026-05-04 17:59 | 41.93457 | 26.83278 | 30841 ft | 473 kts | 125° |
| 2026-05-04 18:00 | 41.91454 | 26.86688 | 30598 ft | 470 kts | 125° |
| 2026-05-04 18:00 | 41.89426 | 26.90118 | 30354 ft | 468 kts | 125° |
| 2026-05-04 18:00 | 41.87364 | 26.93572 | 30106 ft | 467 kts | 126° |
| 2026-05-04 18:00 | 41.85354 | 26.96913 | 29834 ft | 466 kts | 126° |
| 2026-05-04 18:01 | 41.83317 | 27.00280 | 29554 ft | 464 kts | 126° |
| 2026-05-04 18:01 | 41.81283 | 27.03637 | 29285 ft | 463 kts | 126° |
| 2026-05-04 18:01 | 41.79253 | 27.06980 | 29006 ft | 461 kts | 126° |
| 2026-05-04 18:02 | 41.75220 | 27.13615 | 28467 ft | 458 kts | 125° |
| 2026-05-04 18:02 | 41.73212 | 27.16915 | 28207 ft | 456 kts | 125° |
| 2026-05-04 18:02 | 41.71207 | 27.20205 | 27937 ft | 455 kts | 125° |
| 2026-05-04 18:02 | 41.69209 | 27.23480 | 27673 ft | 454 kts | 125° |
| 2026-05-04 18:03 | 41.67223 | 27.26733 | 27416 ft | 452 kts | 125° |
| 2026-05-04 18:03 | 41.65225 | 27.30001 | 27152 ft | 451 kts | 125° |
| 2026-05-04 18:03 | 41.63242 | 27.33241 | 26889 ft | 450 kts | 125° |
| 2026-05-04 18:03 | 41.61263 | 27.36473 | 26648 ft | 449 kts | 125° |
| 2026-05-04 18:04 | 41.59314 | 27.39651 | 26414 ft | 447 kts | 125° |
| 2026-05-04 18:04 | 41.57345 | 27.42857 | 26046 ft | 446 kts | 124° |
| 2026-05-04 18:04 | 41.53369 | 27.49331 | 24433 ft | 453 kts | 124° |
| 2026-05-04 18:05 | 41.51370 | 27.52574 | 23621 ft | 452 kts | 124° |
| 2026-05-04 18:05 | 41.49384 | 27.55791 | 22815 ft | 447 kts | 124° |
| 2026-05-04 18:05 | 41.47414 | 27.58978 | 22035 ft | 442 kts | 124° |
| 2026-05-04 18:05 | 41.45469 | 27.62125 | 21260 ft | 438 kts | 124° |
| 2026-05-04 18:06 | 41.41633 | 27.68323 | 19686 ft | 429 kts | 124° |
| 2026-05-04 18:06 | 41.39740 | 27.71377 | 18914 ft | 425 kts | 124° |
| 2026-05-04 18:06 | 41.37872 | 27.74388 | 18142 ft | 419 kts | 124° |
| 2026-05-04 18:07 | 41.36040 | 27.77336 | 17333 ft | 407 kts | 124° |
| 2026-05-04 18:07 | 41.34254 | 27.80209 | 16622 ft | 400 kts | 124° |
| 2026-05-04 18:07 | 41.32496 | 27.83037 | 15878 ft | 394 kts | 124° |
| 2026-05-04 18:07 | 41.30761 | 27.85827 | 15104 ft | 390 kts | 124° |
| 2026-05-04 18:08 | 41.29043 | 27.88586 | 14355 ft | 386 kts | 124° |
| 2026-05-04 18:08 | 41.27340 | 27.91318 | 13630 ft | 381 kts | 125° |
| 2026-05-04 18:08 | 41.25654 | 27.94018 | 12919 ft | 375 kts | 125° |
| 2026-05-04 18:08 | 41.23996 | 27.96666 | 12142 ft | 372 kts | 125° |
| 2026-05-04 18:09 | 41.20743 | 28.01859 | 10827 ft | 360 kts | 124° |
| 2026-05-04 18:09 | 41.17607 | 28.06853 | 9940 ft | 335 kts | 124° |
| 2026-05-04 18:10 | 41.16167 | 28.09133 | 9630 ft | 312 kts | 124° |
| 2026-05-04 18:10 | 41.14792 | 28.11325 | 9012 ft | 306 kts | 124° |
| 2026-05-04 18:10 | 41.13446 | 28.13480 | 8527 ft | 300 kts | 124° |
| 2026-05-04 18:10 | 41.12135 | 28.15575 | 8331 ft | 297 kts | 124° |
| 2026-05-04 18:11 | 41.10806 | 28.17702 | 8197 ft | 299 kts | 124° |
| 2026-05-04 18:11 | 41.09482 | 28.19808 | 8084 ft | 296 kts | 124° |
| 2026-05-04 18:11 | 41.08176 | 28.21884 | 7742 ft | 297 kts | 124° |
| 2026-05-04 18:11 | 41.06854 | 28.23982 | 7296 ft | 294 kts | 124° |
| 2026-05-04 18:12 | 41.05923 | 28.25458 | 6997 ft | 289 kts | 124° |
| 2026-05-04 18:12 | 41.04650 | 28.27471 | 6576 ft | 281 kts | 125° |
| 2026-05-04 18:12 | 41.03410 | 28.29431 | 6151 ft | 274 kts | 125° |
| 2026-05-04 18:12 | 41.02206 | 28.31333 | 5758 ft | 266 kts | 124° |
| 2026-05-04 18:13 | 41.01003 | 28.33238 | 5366 ft | 283 kts | 124° |
| 2026-05-04 18:13 | 40.99718 | 28.35285 | 5102 ft | 288 kts | 125° |
| 2026-05-04 18:13 | 40.97227 | 28.39373 | 5006 ft | 283 kts | 116° |